• Join FlightAware (Why Join?)
  • Login
  • US Flag 
12:50AM EDT


 

Airport Tracker/Info


-or-


 

Live Flight TrackerFlight Track Log ✈ N251RG ✈ 12-May-2013 ✈ KABE - 8A7

Flight Track Log - Related Links

Times and Time Zones

All times are in EDT time to prevent confusion due to time zone crossing. See the N251RG flight status page for this flight to view local times or setup timezone preferences in your user account.

Time Position Orientation Groundspeed Altitude Reporting Facility
EDT Latitude Longitude Course Direction KTS MPH feet Rate Location/Type
05:30PM 40.6167 -75.4833 194° South 114 131 3,700  Level Philadelphia TRACON
05:32PM 40.5833 -75.4833 180° South 116 133 5,200 1,200 Climbing Philadelphia TRACON
05:32PM 40.5500 -75.4833 180° South 131 151 6,100 420 Climbing Philadelphia TRACON
05:33PM 40.5000 -75.5000 194° South 197 227 6,000 -60 Descending Philadelphia TRACON
05:34PM 40.4500 -75.5167 194° South 190 219 6,000  Level Philadelphia TRACON
05:35PM 40.4640 -75.7065 194° South  Level FlightAware Approximate
05:35PM 40.4000 -75.5167 180° South 191 220 6,000  Level Philadelphia TRACON
05:36PM 40.4136 -75.7233 194° South  Level FlightAware Approximate
05:37PM 40.3333 -75.5333 191° South 197 227 6,000  Level Philadelphia TRACON
05:38PM 40.2833 -75.5500 194° South 188 216 6,000 660 Level Philadelphia TRACON
05:39PM 40.2333 -75.5500 180° South 132 152 7,400 900 Climbing Philadelphia TRACON
05:40PM 40.2000 -75.5667 201° Southwest 148 170 7,900 240 Climbing Philadelphia TRACON
05:41PM 40.1500 -75.5833 194° South 180 207 8,000  Climbing Philadelphia TRACON
05:42PM 40.1000 -75.6000 194° South 181 208 8,000  Level Philadelphia TRACON
05:43PM 40.0500 -75.6167 194° South 186 214 8,000  Level Philadelphia TRACON
05:44PM 40.0000 -75.6500 207° Southwest 193 222 8,100  Climbing Philadelphia TRACON
05:45PM 39.9500 -75.6667 194° South 193 222 8,000 -60 Descending Philadelphia TRACON
05:46PM 39.8833 -75.6667 180° South 205 236 8,000  Level Philadelphia TRACON
05:47PM 39.8333 -75.6500 166° South 202 232 8,000  Level Philadelphia TRACON
05:48PM 39.7833 -75.6333 166° South 204 235 8,000  Level Philadelphia TRACON
05:49PM 39.7333 -75.6167 166° South 203 234 8,100  Climbing Philadelphia TRACON
05:50PM 39.6833 -75.6000 166° South 199 229 8,100 -60 Level Philadelphia TRACON
05:51PM 39.6167 -75.6167 191° South 207 238 8,000 -60 Descending Philadelphia TRACON
05:52PM 39.5667 -75.5833 153° Southeast 203 234 8,000  Level Philadelphia TRACON
05:53PM 39.5000 -75.5667 169° South 207 238 8,000  Level Philadelphia TRACON
05:53PM 39.4761 -75.5672 181° South 209 241 8,000  Level Washington Center
05:54PM 39.4197 -75.5567 172° South 204 235 8,000  Level Washington Center
05:55PM 39.3636 -75.5433 170° South 204 235 8,000  Level Washington Center
05:56PM 39.3072 -75.5300 170° South 204 235 8,000  Level Washington Center
05:57PM 39.2531 -75.5192 171° South 199 229 8,000  Level Washington Center
05:58PM 39.2092 -75.5433 203° Southwest 189 217 8,000  Level Washington Center
05:59PM 39.1697 -75.5756 212° Southwest 177 204 8,000  Level Washington Center
06:00PM 39.1300 -75.6131 216° Southwest 172 198 8,000  Level Washington Center
06:01PM 39.0947 -75.6478 217° Southwest 172 198 8,000  Level Washington Center
06:02PM 39.0550 -75.6825 214° Southwest 178 205 8,000  Level Washington Center
06:03PM 39.0153 -75.7200 216° Southwest 178 205 8,000 -60 Level Washington Center
06:04PM 38.9758 -75.7597 218° Southwest 178 205 7,900  Descending Washington Center
06:05PM 38.9361 -75.7972 216° Southwest 178 205 8,000  Climbing Washington Center
06:06PM 38.8964 -75.8369 218° Southwest 178 205 7,900  Descending Washington Center
06:07PM 38.8567 -75.8717 214° Southwest 178 205 8,000 60 Climbing Washington Center
06:08PM 38.8150 -75.9086 215° Southwest 178 205 8,100  Climbing Washington Center
06:09PM 38.7731 -75.9431 213° Southwest 178 205 8,100  Level Washington Center
06:10PM 38.7356 -75.9775 216° Southwest 178 205 8,100  Level Washington Center
06:11PM 38.6978 -76.0119 215° Southwest 178 205 8,100  Level Washington Center
06:12PM 38.6581 -76.0489 216° Southwest 173 199 8,100  Level Washington Center
06:13PM 38.6206 -76.0858 218° Southwest 173 199 8,100  Level Washington Center
06:14PM 38.5847 -76.1203 217° Southwest 173 199 8,100 -60 Level Washington Center
06:15PM 38.5431 -76.1569 215° Southwest 189 217 8,000 -60 Descending Washington Center
06:16PM 38.5094 -76.1967 223° Southwest 189 217 8,000  Level Washington Center
06:17PM 38.4697 -76.2333 216° Southwest 184 212 8,000  Level Washington Center
06:18PM 38.4339 -76.2703 219° Southwest 179 206 8,000  Level Washington Center
06:19PM 38.3964 -76.3044 216° Southwest 173 199 8,000  Level Washington Center
06:20PM 38.3586 -76.3383 215° Southwest 173 199 8,000  Level Washington Center
06:21PM 38.3228 -76.3697 215° Southwest 173 199 8,000  Level Washington Center
06:22PM 38.2831 -76.4011 212° Southwest 173 199 8,000  Level Washington Center
06:23PM 38.2472 -76.4456 224° Southwest 173 199 8,000  Level Washington Center
06:24PM 38.2219 -76.4903 234° Southwest 173 199 8,000  Level Washington Center
06:25PM 38.1925 -76.5322 228° Southwest 173 199 8,000  Level Washington Center
06:26PM 38.1586 -76.5794 228° Southwest 173 199 8,000  Level Washington Center
06:27PM 38.1269 -76.6239 228° Southwest 173 199 8,000  Level Washington Center
06:28PM 38.0953 -76.6656 226° Southwest 173 199 8,000  Level Washington Center
06:29PM 38.0658 -76.7100 230° Southwest 173 199 8,000 -60 Level Washington Center
06:30PM 38.0319 -76.7544 226° Southwest 173 199 7,900 -60 Descending Washington Center
06:31PM 38.0003 -76.7986 228° Southwest 173 199 7,900  Level Washington Center
06:32PM 37.9686 -76.8428 228° Southwest 173 199 8,000  Climbing Washington Center
06:33PM 37.9286 -76.8817 217° Southwest 173 199 8,000  Level Washington Center
06:34PM 37.8906 -76.9231 221° Southwest 179 206 8,000  Level Washington Center
06:36PM 37.8333 -76.9833 220° Southwest 183 211 8,000  Level Potomac TRACON
06:37PM 37.7833 -77.0333 218° Southwest 181 208 8,000  Level Potomac TRACON
06:38PM 37.7500 -77.0667 218° Southwest 180 207 8,100  Climbing Potomac TRACON
06:39PM 37.7167 -77.1000 218° Southwest 183 211 8,000 -60 Descending Potomac TRACON
06:40PM 37.6667 -77.1500 218° Southwest 184 212 8,000  Level Potomac TRACON
06:41PM 37.6333 -77.1833 218° Southwest 183 211 8,100  Climbing Potomac TRACON
06:42PM 37.5833 -77.2333 218° Southwest 184 212 8,000  Descending Potomac TRACON
06:43PM 37.5500 -77.2667 218° Southwest 182 209 8,100  Climbing Potomac TRACON
06:45PM 37.4833 -77.3667 230° Southwest 163 188 8,100 -60 Level Potomac TRACON
06:46PM 37.4500 -77.4167 230° Southwest 183 211 8,000  Descending Potomac TRACON
06:47PM 37.4333 -77.4833 253° West 182 209 8,100  Climbing Potomac TRACON
06:48PM 37.4000 -77.5333 230° Southwest 190 219 8,000 -60 Descending Potomac TRACON
06:49PM 37.3667 -77.5833 230° Southwest 191 220 8,000  Level Potomac TRACON
06:50PM 37.3500 -77.6500 253° West 193 222 8,000  Level Potomac TRACON
06:51PM 37.3167 -77.7000 230° Southwest 192 221 8,100  Climbing Potomac TRACON
06:52PM 37.2833 -77.7500 230° Southwest 193 222 8,000 -60 Descending Potomac TRACON
06:53PM 37.2664 -77.8100 250° West 189 217 8,000  Level Washington Center
06:54PM 37.2381 -77.8667 238° Southwest 189 217 8,000  Level Washington Center
06:55PM 37.2119 -77.9233 240° Southwest 189 217 8,000  Level Washington Center
06:56PM 37.1858 -77.9772 239° Southwest 189 217 8,000  Level Washington Center
06:57PM 37.1597 -78.0311 239° Southwest 189 217 8,000  Level Washington Center
06:58PM 37.1317 -78.0850 237° Southwest 189 217 8,100  Climbing Washington Center
06:59PM 37.1075 -78.1414 242° Southwest 189 217 8,100 -60 Level Washington Center
07:00PM 37.0833 -78.1928 239° Southwest 189 217 8,000 -60 Descending Washington Center
07:01PM 37.0592 -78.2467 241° Southwest 189 217 8,000  Level Washington Center
07:02PM 37.0308 -78.3028 238° Southwest 189 217 8,000 -60 Level Washington Center
07:03PM 37.0025 -78.3592 238° Southwest 189 217 7,900  Descending Washington Center
07:04PM 36.9719 -78.4178 237° Southwest 189 217 8,000  Climbing Washington Center
07:05PM 36.9456 -78.4714 238° Southwest 189 217 8,000  Level Washington Center
07:06PM 36.9192 -78.5250 238° Southwest 189 217 8,000  Level Washington Center
07:07PM 36.8928 -78.5811 240° Southwest 189 217 8,000  Level Washington Center
07:08PM 36.8686 -78.6269 237° Southwest 189 217 8,000  Level Washington Center
07:09PM 36.8422 -78.6803 238° Southwest 189 217 8,000  Level Washington Center
07:10PM 36.8158 -78.7364 240° Southwest 189 217 8,000  Level Washington Center
07:11PM 36.7872 -78.7897 236° Southwest 189 217 8,000  Level Washington Center
07:12PM 36.7564 -78.8506 238° Southwest 189 217 8,000  Level Washington Center
07:13PM 36.7300 -78.9014 237° Southwest 189 217 8,000  Level Washington Center
07:14PM 36.7014 -78.9572 237° Southwest 189 217 8,000  Level Washington Center
07:15PM 36.6747 -79.0131 239° Southwest 189 217 8,000  Level Washington Center
07:16PM 36.6461 -79.0661 236° Southwest 194 223 8,000  Level Washington Center
07:17PM 36.6175 -79.1192 236° Southwest 194 223 8,000  Level Washington Center
07:18PM 36.5953 -79.1647 239° Southwest 189 217 8,000  Level Washington Center
07:19PM 36.5664 -79.2178 236° Southwest 189 217 8,000  Level Washington Center
07:20PM 36.5375 -79.2758 238° Southwest 189 217 8,000  Level Washington Center
07:22PM 36.4929 -79.3520 234° Southwest  Level FlightAware Approximate
07:29PM 36.2931 -79.7143 238° Southwest  Level FlightAware Approximate
07:30PM 36.2665 -79.7676 238° Southwest  Level FlightAware Approximate
07:31PM 36.2399 -79.8208 238° Southwest  Level FlightAware Approximate
07:32PM 36.2133 -79.8740 238° Southwest  Level FlightAware Approximate
07:33PM 36.1866 -79.9271 238° Southwest  Level FlightAware Approximate
07:34PM 36.1600 -79.9802 238° Southwest  Level FlightAware Approximate
07:35PM 36.1326 -80.0327 237° Southwest  Level FlightAware Approximate
07:36PM 36.1048 -80.0849 237° Southwest  Level FlightAware Approximate
07:37PM 36.0770 -80.1371 237° Southwest  Level FlightAware Approximate